createdAt,value
2019-01-26T00:04:59.892Z,100
2019-01-26T00:09:59.584Z,100
2019-01-26T00:14:59.577Z,100
2019-01-26T00:19:59.630Z,100
2019-01-26T00:25:00.036Z,100
2019-01-26T00:30:00.561Z,100
2019-01-26T00:34:59.167Z,100
2019-01-26T00:39:59.484Z,100
2019-01-26T00:44:59.522Z,100
2019-01-26T00:49:59.637Z,100
2019-01-26T00:54:59.712Z,100
2019-01-26T01:00:01.202Z,100
2019-01-26T01:04:59.569Z,100
2019-01-26T01:09:59.851Z,100
2019-01-26T01:14:59.831Z,100
2019-01-26T01:19:59.578Z,100
2019-01-26T01:24:59.485Z,100
2019-01-26T01:29:59.283Z,100
2019-01-26T01:34:59.454Z,100
2019-01-26T01:39:59.536Z,100
2019-01-26T01:44:59.570Z,100
2019-01-26T01:49:59.349Z,100
2019-01-26T01:54:59.413Z,100
2019-01-26T01:59:59.866Z,100
2019-01-26T02:04:59.457Z,100
2019-01-26T02:09:59.750Z,100
2019-01-26T02:14:59.296Z,100
2019-01-26T02:19:59.769Z,100
2019-01-26T02:24:59.478Z,100
2019-01-26T02:29:59.431Z,100
2019-01-26T02:34:59.151Z,100
2019-01-26T02:39:59.682Z,100
2019-01-26T02:44:59.548Z,100
2019-01-26T02:49:59.663Z,100
2019-01-26T02:54:59.188Z,100
2019-01-26T03:00:32.868Z,100
2019-01-26T03:04:59.307Z,100
2019-01-26T03:09:59.482Z,100
2019-01-26T03:14:59.140Z,100
2019-01-26T03:19:59.207Z,100
2019-01-26T03:24:59.006Z,100
2019-01-26T03:29:59.108Z,100
2019-01-26T03:34:58.961Z,100
2019-01-26T03:39:59.106Z,100
2019-01-26T03:44:59.020Z,100
2019-01-26T03:49:59.180Z,100
2019-01-26T03:54:59.062Z,100
2019-01-26T03:59:59.290Z,100
2019-01-26T04:04:59.104Z,100
2019-01-26T04:09:59.173Z,100
2019-01-26T04:14:59.198Z,100
2019-01-26T04:19:58.896Z,100
2019-01-26T04:24:59.259Z,100
2019-01-26T04:29:58.995Z,100
2019-01-26T04:34:59.126Z,100
2019-01-26T04:39:59.126Z,100
2019-01-26T04:44:59.202Z,100
2019-01-26T04:49:58.861Z,100
2019-01-26T04:54:59.147Z,100
2019-01-26T04:59:59.153Z,100
2019-01-26T05:04:58.826Z,100
2019-01-26T05:09:58.990Z,100
2019-01-26T05:14:58.817Z,100
2019-01-26T05:19:58.888Z,100
2019-01-26T05:24:58.797Z,100
2019-01-26T05:29:59.013Z,100
2019-01-26T05:34:59.046Z,100
2019-01-26T05:39:58.886Z,100
2019-01-26T05:44:59.035Z,100
2019-01-26T05:49:59.103Z,100
2019-01-26T05:54:58.776Z,100
2019-01-26T05:59:58.955Z,100
2019-01-26T06:04:59.109Z,100
2019-01-26T06:09:58.967Z,100
2019-01-26T06:14:59.029Z,100
2019-01-26T06:19:58.906Z,100
2019-01-26T06:24:59.065Z,100
2019-01-26T06:29:58.766Z,100
2019-01-26T06:34:58.927Z,100
2019-01-26T06:39:58.912Z,100
2019-01-26T06:44:58.845Z,100
2019-01-26T06:49:58.890Z,100
2019-01-26T06:54:58.920Z,100
2019-01-26T06:59:58.880Z,100
2019-01-26T07:04:58.666Z,100
2019-01-26T07:09:58.681Z,100
2019-01-26T07:14:58.764Z,100
2019-01-26T07:19:58.648Z,100
2019-01-26T07:25:03.574Z,100
2019-01-26T07:29:58.748Z,100
2019-01-26T07:34:58.935Z,100
2019-01-26T07:39:58.781Z,100
2019-01-26T07:44:58.744Z,100
2019-01-26T07:49:58.705Z,100
2019-01-26T07:54:58.695Z,100
2019-01-26T07:59:58.720Z,100
2019-01-26T08:04:58.574Z,100
2019-01-26T08:09:58.943Z,100
2019-01-26T08:14:58.717Z,100
2019-01-26T08:19:58.635Z,100
2019-01-26T08:24:58.915Z,100
2019-01-26T08:29:58.860Z,100
2019-01-26T08:34:58.543Z,100
2019-01-26T08:39:58.792Z,100
2019-01-26T08:44:58.739Z,100
2019-01-26T08:49:58.797Z,100
2019-01-26T08:54:58.649Z,100
2019-01-26T08:59:58.541Z,100
2019-01-26T09:04:58.806Z,100
2019-01-26T09:09:58.657Z,100
2019-01-26T09:14:58.670Z,100
2019-01-26T09:19:58.755Z,100
2019-01-26T09:24:58.674Z,100
2019-01-26T09:29:58.636Z,100
2019-01-26T09:34:58.605Z,100
2019-01-26T09:39:58.690Z,100
2019-01-26T09:44:58.633Z,100
2019-01-26T09:49:58.618Z,100
2019-01-26T09:54:58.755Z,100
2019-01-26T09:59:58.792Z,100
2019-01-26T10:04:58.519Z,100
2019-01-26T10:09:58.713Z,100
2019-01-26T10:14:58.466Z,100
2019-01-26T10:19:58.710Z,100
2019-01-26T10:24:58.378Z,100
2019-01-26T10:29:58.703Z,100
2019-01-26T10:34:58.709Z,100
2019-01-26T10:39:58.547Z,100
2019-01-26T10:44:58.390Z,100
2019-01-26T10:49:58.526Z,100
2019-01-26T10:54:58.467Z,100
2019-01-26T10:59:58.519Z,100
2019-01-26T11:04:58.570Z,100
2019-01-26T11:09:58.585Z,100
2019-01-26T11:14:58.496Z,100
2019-01-26T11:19:58.344Z,100
2019-01-26T11:24:58.532Z,100
2019-01-26T11:29:58.593Z,100
2019-01-26T11:34:58.457Z,100
2019-01-26T11:39:58.355Z,100
2019-01-26T11:44:58.514Z,100
2019-01-26T11:49:58.636Z,100
2019-01-26T11:54:58.448Z,100
2019-01-26T11:59:58.395Z,100
2019-01-26T12:04:58.479Z,100
2019-01-26T12:09:58.722Z,100
2019-01-26T12:14:58.361Z,100
2019-01-26T12:19:58.318Z,100
2019-01-26T12:24:58.413Z,100
2019-01-26T12:30:27.266Z,100
2019-01-26T12:34:58.215Z,100
2019-01-26T12:39:58.352Z,100
2019-01-26T12:44:58.307Z,100
2019-01-26T12:49:58.323Z,100
2019-01-26T12:54:58.401Z,100
2019-01-26T12:59:58.355Z,100
2019-01-26T13:04:58.264Z,100
2019-01-26T13:09:58.318Z,100
2019-01-26T13:14:58.496Z,100
2019-01-26T13:19:58.360Z,100
2019-01-26T13:24:58.527Z,100
2019-01-26T13:29:58.400Z,99.9
2019-01-26T13:34:58.415Z,98.8
2019-01-26T13:39:58.428Z,98.9
2019-01-26T13:44:58.199Z,97.8
2019-01-26T13:49:58.104Z,98.1
2019-01-26T13:54:58.371Z,98.4
2019-01-26T13:59:58.079Z,98
2019-01-26T14:04:58.235Z,98.4
2019-01-26T14:09:58.169Z,99.2
2019-01-26T14:14:58.383Z,99.6
2019-01-26T14:19:58.324Z,100
2019-01-26T14:24:58.011Z,100
2019-01-26T14:31:14.090Z,100
2019-01-26T14:34:58.310Z,100
2019-01-26T14:39:58.324Z,99.8
2019-01-26T14:44:58.155Z,99.1
2019-01-26T14:49:58.797Z,98.9
2019-01-26T14:54:58.307Z,98.8
2019-01-26T15:01:35.401Z,98.1
2019-01-26T15:04:58.303Z,98.1
2019-01-26T15:09:58.122Z,98.2
2019-01-26T15:14:58.741Z,98.6
2019-01-26T15:20:05.521Z,98.7
2019-01-26T15:24:58.296Z,98.9
2019-01-26T15:29:58.545Z,98.1
2019-01-26T15:34:58.255Z,98.8
2019-01-26T15:39:58.298Z,98.5
2019-01-26T15:44:58.456Z,98.9
2019-01-26T15:49:58.344Z,98.7
2019-01-26T15:54:58.398Z,98.3
2019-01-26T15:59:58.241Z,98.4
2019-01-26T16:04:58.297Z,98.7
2019-01-26T16:09:58.172Z,99.4
2019-01-26T16:14:58.777Z,99.7
2019-01-26T16:19:58.517Z,100
2019-01-26T16:24:58.187Z,100
2019-01-26T16:29:58.818Z,100
2019-01-26T16:34:58.277Z,100
2019-01-26T16:39:58.386Z,100
2019-01-26T16:46:00.898Z,100
2019-01-26T16:49:58.034Z,99.6
2019-01-26T16:54:58.234Z,99.4
2019-01-26T16:59:58.843Z,100
2019-01-26T17:04:58.548Z,100
2019-01-26T17:09:58.930Z,100
2019-01-26T17:14:58.242Z,100
2019-01-26T17:19:58.189Z,100
2019-01-26T17:24:58.076Z,100
2019-01-26T17:29:58.244Z,100
2019-01-26T17:34:58.136Z,100
2019-01-26T17:39:58.155Z,100
2019-01-26T17:44:58.291Z,100
2019-01-26T17:49:58.529Z,100
2019-01-26T17:54:58.180Z,100
2019-01-26T17:59:57.952Z,100
2019-01-26T18:04:58.255Z,100
2019-01-26T18:09:58.521Z,100
2019-01-26T18:14:59.221Z,100
2019-01-26T18:19:58.461Z,100
2019-01-26T18:24:58.224Z,100
2019-01-26T18:29:58.055Z,100
2019-01-26T18:34:58.648Z,100
2019-01-26T18:39:58.163Z,100
2019-01-26T18:44:58.193Z,100
2019-01-26T18:49:58.091Z,100
2019-01-26T18:54:57.771Z,100
2019-01-26T18:59:58.807Z,100
2019-01-26T19:04:57.817Z,100
2019-01-26T19:12:04.337Z,100
2019-01-26T19:15:07.715Z,100
2019-01-26T19:20:32.520Z,100
2019-01-26T19:24:58.342Z,100
2019-01-26T19:29:58.456Z,100
2019-01-26T19:34:58.366Z,100
2019-01-26T19:39:58.203Z,100
2019-01-26T19:45:19.137Z,100
2019-01-26T19:49:58.651Z,100
2019-01-26T19:54:59.711Z,100
2019-01-26T19:59:59.129Z,100
2019-01-26T20:04:59.099Z,100
2019-01-26T20:09:57.840Z,100
2019-01-26T20:14:58.029Z,100
2019-01-26T20:19:57.987Z,100
2019-01-26T20:24:57.998Z,100
2019-01-26T20:29:57.919Z,100
2019-01-26T20:34:57.834Z,100
2019-01-26T20:39:58.035Z,100
2019-01-26T20:44:57.984Z,100
2019-01-26T20:49:58.123Z,100
2019-01-26T20:54:58.119Z,100
2019-01-26T20:59:57.904Z,100
2019-01-26T21:04:58.052Z,100
2019-01-26T21:09:57.784Z,100
2019-01-26T21:15:04.400Z,100
2019-01-26T21:19:58.863Z,100
2019-01-26T21:24:58.049Z,100
2019-01-26T21:29:57.872Z,100
2019-01-26T21:34:57.749Z,100
2019-01-26T21:39:58.095Z,100
2019-01-26T21:44:57.945Z,100
2019-01-26T21:49:58.327Z,100
2019-01-26T21:54:57.817Z,100
2019-01-26T21:59:58.321Z,100
2019-01-26T22:04:57.805Z,100
2019-01-26T22:09:57.829Z,100
2019-01-26T22:14:57.693Z,100
2019-01-26T22:19:58.195Z,100
2019-01-26T22:24:57.840Z,100
2019-01-26T22:29:57.835Z,100
2019-01-26T22:34:57.910Z,100
2019-01-26T22:39:58.252Z,100
2019-01-26T22:44:57.534Z,100
2019-01-26T22:49:58.033Z,100
2019-01-26T22:54:58.244Z,100
2019-01-26T22:59:57.894Z,100
2019-01-26T23:04:57.715Z,100
2019-01-26T23:09:57.955Z,100
2019-01-26T23:14:57.708Z,100
2019-01-26T23:19:58.118Z,100
2019-01-26T23:24:57.637Z,100
2019-01-26T23:29:57.785Z,100
2019-01-26T23:34:57.622Z,100
2019-01-26T23:39:57.851Z,100
2019-01-26T23:44:57.703Z,100
2019-01-26T23:49:57.879Z,100
2019-01-26T23:54:57.774Z,100
2019-01-26T23:59:58.156Z,100
